sensor_id;sensor_type;location;lat;lon;timestamp;P1;durP1;ratioP1;P2;durP2;ratioP2
56653;SDS011;45096;52.302;4.634;2023-03-14T00:01:23;8.18;;;2.50;;
56653;SDS011;45096;52.302;4.634;2023-03-14T00:03:48;10.10;;;3.42;;
56653;SDS011;45096;52.302;4.634;2023-03-14T00:06:14;8.43;;;2.75;;
56653;SDS011;45096;52.302;4.634;2023-03-14T00:08:39;11.15;;;2.80;;
56653;SDS011;45096;52.302;4.634;2023-03-14T00:11:06;10.52;;;2.92;;
56653;SDS011;45096;52.302;4.634;2023-03-14T00:13:32;8.85;;;2.65;;
56653;SDS011;45096;52.302;4.634;2023-03-14T00:16:02;10.05;;;2.90;;
56653;SDS011;45096;52.302;4.634;2023-03-14T00:18:28;10.88;;;2.90;;
56653;SDS011;45096;52.302;4.634;2023-03-14T00:20:56;12.63;;;2.72;;
56653;SDS011;45096;52.302;4.634;2023-03-14T00:23:22;5.03;;;2.22;;
56653;SDS011;45096;52.302;4.634;2023-03-14T00:25:48;11.65;;;2.50;;
56653;SDS011;45096;52.302;4.634;2023-03-14T00:28:13;6.07;;;2.35;;
56653;SDS011;45096;52.302;4.634;2023-03-14T00:30:38;8.35;;;2.60;;
56653;SDS011;45096;52.302;4.634;2023-03-14T00:33:05;11.93;;;3.28;;
56653;SDS011;45096;52.302;4.634;2023-03-14T00:35:31;9.25;;;3.10;;
56653;SDS011;45096;52.302;4.634;2023-03-14T00:37:56;6.55;;;2.47;;
56653;SDS011;45096;52.302;4.634;2023-03-14T00:40:22;9.50;;;2.97;;
56653;SDS011;45096;52.302;4.634;2023-03-14T00:42:47;12.45;;;2.75;;
56653;SDS011;45096;52.302;4.634;2023-03-14T00:45:12;6.32;;;1.92;;
56653;SDS011;45096;52.302;4.634;2023-03-14T00:47:38;13.43;;;3.30;;
56653;SDS011;45096;52.302;4.634;2023-03-14T00:50:05;11.50;;;2.90;;
56653;SDS011;45096;52.302;4.634;2023-03-14T00:52:31;8.07;;;2.83;;
56653;SDS011;45096;52.302;4.634;2023-03-14T00:54:57;13.65;;;2.70;;
56653;SDS011;45096;52.302;4.634;2023-03-14T00:57:22;15.18;;;3.05;;
56653;SDS011;45096;52.302;4.634;2023-03-14T00:59:48;12.75;;;3.20;;
56653;SDS011;45096;52.302;4.634;2023-03-14T01:02:13;10.73;;;3.42;;
56653;SDS011;45096;52.302;4.634;2023-03-14T01:04:38;11.35;;;3.60;;
56653;SDS011;45096;52.302;4.634;2023-03-14T01:07:05;12.85;;;3.00;;
56653;SDS011;45096;52.302;4.634;2023-03-14T01:09:31;18.10;;;3.78;;
56653;SDS011;45096;52.302;4.634;2023-03-14T01:11:56;12.43;;;3.10;;
56653;SDS011;45096;52.302;4.634;2023-03-14T01:14:21;10.30;;;3.05;;
56653;SDS011;45096;52.302;4.634;2023-03-14T01:16:47;10.88;;;3.65;;
56653;SDS011;45096;52.302;4.634;2023-03-14T01:19:12;12.80;;;3.42;;
56653;SDS011;45096;52.302;4.634;2023-03-14T01:21:38;8.95;;;3.25;;
56653;SDS011;45096;52.302;4.634;2023-03-14T01:24:06;22.42;;;3.38;;
56653;SDS011;45096;52.302;4.634;2023-03-14T01:26:32;12.18;;;3.45;;
56653;SDS011;45096;52.302;4.634;2023-03-14T01:28:59;12.32;;;3.83;;
56653;SDS011;45096;52.302;4.634;2023-03-14T01:31:25;12.90;;;4.35;;
56653;SDS011;45096;52.302;4.634;2023-03-14T01:33:50;15.25;;;3.58;;
56653;SDS011;45096;52.302;4.634;2023-03-14T01:36:16;13.32;;;4.32;;
56653;SDS011;45096;52.302;4.634;2023-03-14T01:38:42;20.88;;;3.90;;
56653;SDS011;45096;52.302;4.634;2023-03-14T01:41:10;13.13;;;3.70;;
56653;SDS011;45096;52.302;4.634;2023-03-14T01:43:38;7.95;;;3.30;;
56653;SDS011;45096;52.302;4.634;2023-03-14T01:48:51;20.05;;;4.35;;
56653;SDS011;45096;52.302;4.634;2023-03-14T01:51:21;11.25;;;3.10;;
56653;SDS011;45096;52.302;4.634;2023-03-14T01:53:50;7.82;;;3.17;;
56653;SDS011;45096;52.302;4.634;2023-03-14T01:56:17;19.75;;;3.53;;
56653;SDS011;45096;52.302;4.634;2023-03-14T01:58:44;10.38;;;3.38;;
56653;SDS011;45096;52.302;4.634;2023-03-14T02:01:10;11.32;;;3.28;;
56653;SDS011;45096;52.302;4.634;2023-03-14T02:03:37;7.90;;;2.65;;
56653;SDS011;45096;52.302;4.634;2023-03-14T02:06:07;16.45;;;4.07;;
56653;SDS011;45096;52.302;4.634;2023-03-14T02:08:33;12.15;;;3.08;;
56653;SDS011;45096;52.302;4.634;2023-03-14T02:11:00;10.23;;;2.78;;
56653;SDS011;45096;52.302;4.634;2023-03-14T02:13:27;13.30;;;3.55;;
56653;SDS011;45096;52.302;4.634;2023-03-14T02:15:53;12.48;;;3.25;;
56653;SDS011;45096;52.302;4.634;2023-03-14T02:18:18;8.30;;;3.00;;
56653;SDS011;45096;52.302;4.634;2023-03-14T02:20:45;10.30;;;3.30;;
56653;SDS011;45096;52.302;4.634;2023-03-14T02:23:14;12.95;;;2.90;;
56653;SDS011;45096;52.302;4.634;2023-03-14T02:25:43;15.15;;;4.93;;
56653;SDS011;45096;52.302;4.634;2023-03-14T02:28:12;10.43;;;2.85;;
56653;SDS011;45096;52.302;4.634;2023-03-14T02:30:37;7.65;;;2.40;;
56653;SDS011;45096;52.302;4.634;2023-03-14T02:33:04;14.88;;;3.45;;
56653;SDS011;45096;52.302;4.634;2023-03-14T02:35:32;10.43;;;3.00;;
56653;SDS011;45096;52.302;4.634;2023-03-14T02:38:00;9.77;;;3.42;;
56653;SDS011;45096;52.302;4.634;2023-03-14T02:40:29;8.88;;;3.20;;
56653;SDS011;45096;52.302;4.634;2023-03-14T02:42:54;8.45;;;2.55;;
56653;SDS011;45096;52.302;4.634;2023-03-14T02:45:32;6.53;;;2.15;;
56653;SDS011;45096;52.302;4.634;2023-03-14T02:48:00;9.35;;;3.10;;
56653;SDS011;45096;52.302;4.634;2023-03-14T02:50:29;12.55;;;3.03;;
56653;SDS011;45096;52.302;4.634;2023-03-14T02:52:56;8.70;;;2.28;;
56653;SDS011;45096;52.302;4.634;2023-03-14T02:55:21;8.95;;;3.40;;
56653;SDS011;45096;52.302;4.634;2023-03-14T02:57:47;5.95;;;2.25;;
56653;SDS011;45096;52.302;4.634;2023-03-14T03:00:13;7.47;;;2.83;;
56653;SDS011;45096;52.302;4.634;2023-03-14T03:02:40;9.43;;;2.72;;
56653;SDS011;45096;52.302;4.634;2023-03-14T03:05:06;6.65;;;2.47;;
56653;SDS011;45096;52.302;4.634;2023-03-14T03:07:31;8.60;;;2.75;;
56653;SDS011;45096;52.302;4.634;2023-03-14T03:09:57;7.65;;;2.53;;
56653;SDS011;45096;52.302;4.634;2023-03-14T03:12:22;8.15;;;2.47;;
56653;SDS011;45096;52.302;4.634;2023-03-14T03:14:48;11.57;;;2.83;;
56653;SDS011;45096;52.302;4.634;2023-03-14T03:17:13;8.85;;;2.75;;
56653;SDS011;45096;52.302;4.634;2023-03-14T03:19:40;14.45;;;3.33;;
56653;SDS011;45096;52.302;4.634;2023-03-14T03:22:05;8.07;;;2.88;;
56653;SDS011;45096;52.302;4.634;2023-03-14T03:24:31;7.35;;;3.17;;
56653;SDS011;45096;52.302;4.634;2023-03-14T03:26:57;9.32;;;3.00;;
56653;SDS011;45096;52.302;4.634;2023-03-14T03:29:22;8.75;;;3.17;;
56653;SDS011;45096;52.302;4.634;2023-03-14T03:31:48;8.40;;;2.95;;
56653;SDS011;45096;52.302;4.634;2023-03-14T03:34:13;9.05;;;3.30;;
56653;SDS011;45096;52.302;4.634;2023-03-14T03:36:41;11.48;;;4.25;;
56653;SDS011;45096;52.302;4.634;2023-03-14T03:39:06;9.60;;;3.47;;
56653;SDS011;45096;52.302;4.634;2023-03-14T03:41:32;7.20;;;2.85;;
56653;SDS011;45096;52.302;4.634;2023-03-14T03:43:57;7.07;;;3.95;;
56653;SDS011;45096;52.302;4.634;2023-03-14T03:46:23;7.80;;;3.35;;
56653;SDS011;45096;52.302;4.634;2023-03-14T03:48:53;5.07;;;2.83;;
56653;SDS011;45096;52.302;4.634;2023-03-14T03:51:19;4.40;;;2.50;;
56653;SDS011;45096;52.302;4.634;2023-03-14T03:53:46;5.35;;;2.90;;
56653;SDS011;45096;52.302;4.634;2023-03-14T03:56:11;8.10;;;2.92;;
56653;SDS011;45096;52.302;4.634;2023-03-14T03:58:37;6.53;;;3.08;;
56653;SDS011;45096;52.302;4.634;2023-03-14T04:01:03;13.68;;;3.85;;
56653;SDS011;45096;52.302;4.634;2023-03-14T04:03:28;8.82;;;3.30;;
56653;SDS011;45096;52.302;4.634;2023-03-14T04:06:00;10.45;;;3.30;;
56653;SDS011;45096;52.302;4.634;2023-03-14T04:08:27;11.30;;;3.60;;
56653;SDS011;45096;52.302;4.634;2023-03-14T04:10:55;9.65;;;3.47;;
56653;SDS011;45096;52.302;4.634;2023-03-14T04:13:21;6.07;;;3.17;;
56653;SDS011;45096;52.302;4.634;2023-03-14T04:15:46;13.85;;;4.43;;
56653;SDS011;45096;52.302;4.634;2023-03-14T04:18:11;8.35;;;4.57;;
56653;SDS011;45096;52.302;4.634;2023-03-14T04:20:37;6.82;;;3.47;;
56653;SDS011;45096;52.302;4.634;2023-03-14T04:23:02;5.82;;;3.65;;
56653;SDS011;45096;52.302;4.634;2023-03-14T04:25:28;6.75;;;3.35;;
56653;SDS011;45096;52.302;4.634;2023-03-14T04:27:54;6.68;;;3.17;;
56653;SDS011;45096;52.302;4.634;2023-03-14T04:30:20;8.38;;;3.53;;
56653;SDS011;45096;52.302;4.634;2023-03-14T04:32:45;6.35;;;3.47;;
56653;SDS011;45096;52.302;4.634;2023-03-14T04:35:11;5.15;;;2.90;;
56653;SDS011;45096;52.302;4.634;2023-03-14T04:37:36;6.80;;;3.20;;
56653;SDS011;45096;52.302;4.634;2023-03-14T04:40:02;7.90;;;3.15;;
56653;SDS011;45096;52.302;4.634;2023-03-14T04:42:27;7.22;;;3.25;;
56653;SDS011;45096;52.302;4.634;2023-03-14T04:44:54;6.68;;;3.15;;
56653;SDS011;45096;52.302;4.634;2023-03-14T04:47:20;6.40;;;2.78;;
56653;SDS011;45096;52.302;4.634;2023-03-14T04:49:45;4.47;;;2.80;;
56653;SDS011;45096;52.302;4.634;2023-03-14T04:52:10;6.82;;;3.47;;
56653;SDS011;45096;52.302;4.634;2023-03-14T04:54:36;4.93;;;2.70;;
56653;SDS011;45096;52.302;4.634;2023-03-14T04:57:01;4.43;;;2.95;;
56653;SDS011;45096;52.302;4.634;2023-03-14T04:59:27;6.90;;;4.45;;
56653;SDS011;45096;52.302;4.634;2023-03-14T05:01:54;8.50;;;4.10;;
56653;SDS011;45096;52.302;4.634;2023-03-14T05:04:19;11.63;;;6.97;;
56653;SDS011;45096;52.302;4.634;2023-03-14T05:06:45;9.15;;;6.05;;
56653;SDS011;45096;52.302;4.634;2023-03-14T05:09:10;8.85;;;5.47;;
56653;SDS011;45096;52.302;4.634;2023-03-14T05:11:36;7.85;;;5.20;;
56653;SDS011;45096;52.302;4.634;2023-03-14T05:14:01;7.57;;;4.88;;
56653;SDS011;45096;52.302;4.634;2023-03-14T05:16:26;7.07;;;3.75;;
56653;SDS011;45096;52.302;4.634;2023-03-14T05:18:53;6.82;;;3.70;;
56653;SDS011;45096;52.302;4.634;2023-03-14T05:21:19;6.15;;;3.33;;
56653;SDS011;45096;52.302;4.634;2023-03-14T05:23:44;3.80;;;2.63;;
56653;SDS011;45096;52.302;4.634;2023-03-14T05:26:09;5.18;;;2.88;;
56653;SDS011;45096;52.302;4.634;2023-03-14T05:28:35;6.93;;;3.65;;
56653;SDS011;45096;52.302;4.634;2023-03-14T05:31:00;14.80;;;7.63;;
56653;SDS011;45096;52.302;4.634;2023-03-14T05:33:26;11.40;;;7.30;;
56653;SDS011;45096;52.302;4.634;2023-03-14T05:35:53;14.48;;;7.18;;
56653;SDS011;45096;52.302;4.634;2023-03-14T05:38:18;12.40;;;7.22;;
56653;SDS011;45096;52.302;4.634;2023-03-14T05:40:44;9.00;;;5.93;;
56653;SDS011;45096;52.302;4.634;2023-03-14T05:43:10;10.35;;;6.50;;
56653;SDS011;45096;52.302;4.634;2023-03-14T05:45:35;10.30;;;5.55;;
56653;SDS011;45096;52.302;4.634;2023-03-14T05:48:00;11.85;;;5.28;;
56653;SDS011;45096;52.302;4.634;2023-03-14T05:50:26;8.52;;;4.65;;
56653;SDS011;45096;52.302;4.634;2023-03-14T05:52:53;9.30;;;4.88;;
56653;SDS011;45096;52.302;4.634;2023-03-14T05:55:18;9.10;;;3.92;;
56653;SDS011;45096;52.302;4.634;2023-03-14T05:57:44;5.22;;;3.47;;
56653;SDS011;45096;52.302;4.634;2023-03-14T06:00:09;6.88;;;3.40;;
56653;SDS011;45096;52.302;4.634;2023-03-14T06:02:35;7.85;;;3.22;;
56653;SDS011;45096;52.302;4.634;2023-03-14T06:05:01;6.03;;;2.92;;
56653;SDS011;45096;52.302;4.634;2023-03-14T06:07:26;8.07;;;3.50;;
56653;SDS011;45096;52.302;4.634;2023-03-14T06:09:53;7.32;;;3.28;;
56653;SDS011;45096;52.302;4.634;2023-03-14T06:12:18;5.80;;;2.85;;
56653;SDS011;45096;52.302;4.634;2023-03-14T06:14:44;5.18;;;2.60;;
56653;SDS011;45096;52.302;4.634;2023-03-14T06:17:09;5.18;;;2.88;;
56653;SDS011;45096;52.302;4.634;2023-03-14T06:19:35;7.03;;;2.42;;
56653;SDS011;45096;52.302;4.634;2023-03-14T06:22:00;6.40;;;2.42;;
56653;SDS011;45096;52.302;4.634;2023-03-14T06:24:26;3.30;;;2.22;;
56653;SDS011;45096;52.302;4.634;2023-03-14T06:26:52;2.85;;;2.10;;
56653;SDS011;45096;52.302;4.634;2023-03-14T06:29:18;3.58;;;2.78;;
56653;SDS011;45096;52.302;4.634;2023-03-14T06:31:43;3.50;;;2.08;;
56653;SDS011;45096;52.302;4.634;2023-03-14T06:34:09;5.90;;;1.90;;
56653;SDS011;45096;52.302;4.634;2023-03-14T06:36:34;6.28;;;2.38;;
56653;SDS011;45096;52.302;4.634;2023-03-14T06:38:59;3.22;;;1.40;;
56653;SDS011;45096;52.302;4.634;2023-03-14T06:41:26;4.15;;;2.40;;
56653;SDS011;45096;52.302;4.634;2023-03-14T06:43:53;5.32;;;2.10;;
56653;SDS011;45096;52.302;4.634;2023-03-14T06:46:18;2.30;;;1.67;;
56653;SDS011;45096;52.302;4.634;2023-03-14T06:48:44;4.22;;;1.50;;
56653;SDS011;45096;52.302;4.634;2023-03-14T06:51:09;4.53;;;1.85;;
56653;SDS011;45096;52.302;4.634;2023-03-14T06:53:35;4.90;;;1.60;;
56653;SDS011;45096;52.302;4.634;2023-03-14T06:56:00;7.82;;;2.67;;
56653;SDS011;45096;52.302;4.634;2023-03-14T06:58:26;3.95;;;1.63;;
56653;SDS011;45096;52.302;4.634;2023-03-14T07:00:53;1.65;;;1.52;;
56653;SDS011;45096;52.302;4.634;2023-03-14T07:03:18;4.22;;;1.60;;
56653;SDS011;45096;52.302;4.634;2023-03-14T07:05:44;3.50;;;1.55;;
56653;SDS011;45096;52.302;4.634;2023-03-14T07:08:09;1.55;;;1.30;;
56653;SDS011;45096;52.302;4.634;2023-03-14T07:10:35;4.65;;;1.55;;
56653;SDS011;45096;52.302;4.634;2023-03-14T07:13:00;3.08;;;1.42;;
56653;SDS011;45096;52.302;4.634;2023-03-14T07:15:26;1.63;;;1.30;;
56653;SDS011;45096;52.302;4.634;2023-03-14T07:17:52;2.83;;;1.33;;
56653;SDS011;45096;52.302;4.634;2023-03-14T07:20:18;4.28;;;1.80;;
56653;SDS011;45096;52.302;4.634;2023-03-14T07:22:43;4.10;;;1.90;;
56653;SDS011;45096;52.302;4.634;2023-03-14T07:25:09;7.05;;;1.90;;
56653;SDS011;45096;52.302;4.634;2023-03-14T07:27:34;10.43;;;2.10;;
56653;SDS011;45096;52.302;4.634;2023-03-14T07:30:00;3.60;;;1.80;;
56653;SDS011;45096;52.302;4.634;2023-03-14T07:32:25;7.03;;;2.53;;
56653;SDS011;45096;52.302;4.634;2023-03-14T07:34:52;8.73;;;2.70;;
56653;SDS011;45096;52.302;4.634;2023-03-14T07:37:17;6.93;;;2.35;;
56653;SDS011;45096;52.302;4.634;2023-03-14T07:39:43;6.40;;;1.92;;
56653;SDS011;45096;52.302;4.634;2023-03-14T07:42:08;6.45;;;2.10;;
56653;SDS011;45096;52.302;4.634;2023-03-14T07:44:33;4.25;;;1.98;;
56653;SDS011;45096;52.302;4.634;2023-03-14T07:46:59;3.50;;;1.50;;
56653;SDS011;45096;52.302;4.634;2023-03-14T07:49:24;5.07;;;1.95;;
56653;SDS011;45096;52.302;4.634;2023-03-14T07:51:51;5.00;;;1.50;;
56653;SDS011;45096;52.302;4.634;2023-03-14T07:54:17;6.53;;;1.63;;
56653;SDS011;45096;52.302;4.634;2023-03-14T07:56:42;7.57;;;1.83;;
56653;SDS011;45096;52.302;4.634;2023-03-14T07:59:07;7.38;;;2.17;;
56653;SDS011;45096;52.302;4.634;2023-03-14T08:01:33;4.80;;;1.25;;
56653;SDS011;45096;52.302;4.634;2023-03-14T08:03:58;2.40;;;1.50;;
56653;SDS011;45096;52.302;4.634;2023-03-14T08:06:24;3.70;;;1.52;;
56653;SDS011;45096;52.302;4.634;2023-03-14T08:08:51;4.28;;;1.42;;
56653;SDS011;45096;52.302;4.634;2023-03-14T08:11:16;1.77;;;1.15;;
56653;SDS011;45096;52.302;4.634;2023-03-14T08:13:42;4.63;;;1.45;;
56653;SDS011;45096;52.302;4.634;2023-03-14T08:16:08;5.90;;;1.45;;
56653;SDS011;45096;52.302;4.634;2023-03-14T08:18:33;5.38;;;1.20;;
56653;SDS011;45096;52.302;4.634;2023-03-14T08:20:59;5.15;;;1.85;;
56653;SDS011;45096;52.302;4.634;2023-03-14T08:23:24;1.67;;;1.00;;
56653;SDS011;45096;52.302;4.634;2023-03-14T08:25:51;4.03;;;1.67;;
56653;SDS011;45096;52.302;4.634;2023-03-14T08:28:17;4.93;;;1.30;;
56653;SDS011;45096;52.302;4.634;2023-03-14T08:30:42;3.10;;;1.20;;
56653;SDS011;45096;52.302;4.634;2023-03-14T08:33:07;3.00;;;1.65;;
56653;SDS011;45096;52.302;4.634;2023-03-14T08:35:33;2.25;;;1.27;;
56653;SDS011;45096;52.302;4.634;2023-03-14T08:37:58;4.13;;;1.50;;
56653;SDS011;45096;52.302;4.634;2023-03-14T08:40:24;6.18;;;1.48;;
56653;SDS011;45096;52.302;4.634;2023-03-14T08:42:51;4.43;;;1.55;;
56653;SDS011;45096;52.302;4.634;2023-03-14T08:45:16;3.22;;;1.55;;
56653;SDS011;45096;52.302;4.634;2023-03-14T08:47:42;8.00;;;1.98;;
56653;SDS011;45096;52.302;4.634;2023-03-14T08:50:08;6.63;;;2.20;;
56653;SDS011;45096;52.302;4.634;2023-03-14T08:52:34;7.63;;;2.20;;
56653;SDS011;45096;52.302;4.634;2023-03-14T08:55:00;3.75;;;1.63;;
56653;SDS011;45096;52.302;4.634;2023-03-14T08:57:26;4.78;;;2.00;;
56653;SDS011;45096;52.302;4.634;2023-03-14T08:59:53;7.35;;;1.75;;
56653;SDS011;45096;52.302;4.634;2023-03-14T09:02:18;6.28;;;2.38;;
56653;SDS011;45096;52.302;4.634;2023-03-14T09:04:44;6.85;;;2.30;;
56653;SDS011;45096;52.302;4.634;2023-03-14T09:07:09;6.68;;;2.28;;
56653;SDS011;45096;52.302;4.634;2023-03-14T09:09:34;7.90;;;2.53;;
56653;SDS011;45096;52.302;4.634;2023-03-14T09:12:00;7.53;;;2.08;;
56653;SDS011;45096;52.302;4.634;2023-03-14T09:14:25;7.47;;;2.20;;
56653;SDS011;45096;52.302;4.634;2023-03-14T09:16:52;7.72;;;2.75;;
56653;SDS011;45096;52.302;4.634;2023-03-14T09:19:18;10.98;;;2.47;;
56653;SDS011;45096;52.302;4.634;2023-03-14T09:21:43;6.05;;;2.63;;
56653;SDS011;45096;52.302;4.634;2023-03-14T09:24:08;7.35;;;2.60;;
56653;SDS011;45096;52.302;4.634;2023-03-14T09:26:34;11.23;;;2.53;;
56653;SDS011;45096;52.302;4.634;2023-03-14T09:28:59;9.18;;;2.33;;
56653;SDS011;45096;52.302;4.634;2023-03-14T09:31:25;9.57;;;2.85;;
56653;SDS011;45096;52.302;4.634;2023-03-14T09:33:51;9.73;;;2.83;;
56653;SDS011;45096;52.302;4.634;2023-03-14T09:36:17;11.10;;;3.05;;
56653;SDS011;45096;52.302;4.634;2023-03-14T09:38:42;10.50;;;3.20;;
56653;SDS011;45096;52.302;4.634;2023-03-14T09:41:12;9.75;;;2.53;;
56653;SDS011;45096;52.302;4.634;2023-03-14T09:43:40;11.65;;;3.10;;
56653;SDS011;45096;52.302;4.634;2023-03-14T09:46:07;12.98;;;3.38;;
56653;SDS011;45096;52.302;4.634;2023-03-14T09:48:34;7.15;;;3.03;;
56653;SDS011;45096;52.302;4.634;2023-03-14T09:51:01;11.90;;;2.70;;
56653;SDS011;45096;52.302;4.634;2023-03-14T09:53:32;15.57;;;3.40;;
56653;SDS011;45096;52.302;4.634;2023-03-14T09:56:01;17.25;;;3.67;;
56653;SDS011;45096;52.302;4.634;2023-03-14T09:58:27;11.85;;;3.13;;
56653;SDS011;45096;52.302;4.634;2023-03-14T10:00:53;17.63;;;3.92;;
56653;SDS011;45096;52.302;4.634;2023-03-14T10:03:22;12.77;;;4.05;;
56653;SDS011;45096;52.302;4.634;2023-03-14T10:05:50;10.18;;;3.28;;
56653;SDS011;45096;52.302;4.634;2023-03-14T10:08:17;12.95;;;4.13;;
56653;SDS011;45096;52.302;4.634;2023-03-14T10:10:42;12.02;;;3.22;;
56653;SDS011;45096;52.302;4.634;2023-03-14T10:13:12;10.63;;;3.17;;
56653;SDS011;45096;52.302;4.634;2023-03-14T10:15:39;16.35;;;4.05;;
56653;SDS011;45096;52.302;4.634;2023-03-14T10:18:09;14.75;;;3.80;;
56653;SDS011;45096;52.302;4.634;2023-03-14T10:20:37;17.25;;;3.38;;
56653;SDS011;45096;52.302;4.634;2023-03-14T10:23:04;14.70;;;3.17;;
56653;SDS011;45096;52.302;4.634;2023-03-14T10:25:32;12.02;;;2.90;;
56653;SDS011;45096;52.302;4.634;2023-03-14T10:27:59;15.68;;;3.35;;
56653;SDS011;45096;52.302;4.634;2023-03-14T10:30:30;18.00;;;3.72;;
56653;SDS011;45096;52.302;4.634;2023-03-14T10:32:59;12.85;;;3.38;;
56653;SDS011;45096;52.302;4.634;2023-03-14T10:35:33;18.52;;;3.40;;
56653;SDS011;45096;52.302;4.634;2023-03-14T10:37:59;16.40;;;3.40;;
56653;SDS011;45096;52.302;4.634;2023-03-14T10:40:26;16.63;;;3.35;;
56653;SDS011;45096;52.302;4.634;2023-03-14T10:42:55;17.60;;;2.83;;
56653;SDS011;45096;52.302;4.634;2023-03-14T10:48:18;10.18;;;2.35;;
56653;SDS011;45096;52.302;4.634;2023-03-14T10:50:48;8.48;;;2.28;;
56653;SDS011;45096;52.302;4.634;2023-03-14T10:53:29;8.05;;;2.28;;
56653;SDS011;45096;52.302;4.634;2023-03-14T10:55:58;10.10;;;3.17;;
56653;SDS011;45096;52.302;4.634;2023-03-14T10:58:30;11.63;;;2.70;;
56653;SDS011;45096;52.302;4.634;2023-03-14T11:01:00;10.77;;;2.80;;
56653;SDS011;45096;52.302;4.634;2023-03-14T11:03:31;6.82;;;2.38;;
56653;SDS011;45096;52.302;4.634;2023-03-14T11:05:58;13.13;;;2.50;;
56653;SDS011;45096;52.302;4.634;2023-03-14T11:08:25;11.88;;;3.15;;
56653;SDS011;45096;52.302;4.634;2023-03-14T11:10:54;10.23;;;2.13;;
56653;SDS011;45096;52.302;4.634;2023-03-14T11:13:25;8.55;;;2.25;;
56653;SDS011;45096;52.302;4.634;2023-03-14T11:16:01;6.05;;;2.78;;
56653;SDS011;45096;52.302;4.634;2023-03-14T11:21:18;9.60;;;2.30;;
56653;SDS011;45096;52.302;4.634;2023-03-14T11:23:47;10.45;;;2.67;;
56653;SDS011;45096;52.302;4.634;2023-03-14T11:26:20;12.40;;;2.72;;
56653;SDS011;45096;52.302;4.634;2023-03-14T11:28:54;11.82;;;2.35;;
56653;SDS011;45096;52.302;4.634;2023-03-14T11:31:25;6.70;;;2.08;;
56653;SDS011;45096;52.302;4.634;2023-03-14T11:33:53;7.90;;;2.05;;
56653;SDS011;45096;52.302;4.634;2023-03-14T11:36:23;9.20;;;2.60;;
56653;SDS011;45096;52.302;4.634;2023-03-14T11:38:52;5.72;;;2.28;;
56653;SDS011;45096;52.302;4.634;2023-03-14T11:41:22;4.47;;;2.28;;
56653;SDS011;45096;52.302;4.634;2023-03-14T11:43:51;6.97;;;1.95;;
56653;SDS011;45096;52.302;4.634;2023-03-14T11:46:20;6.65;;;2.17;;
56653;SDS011;45096;52.302;4.634;2023-03-14T11:48:51;10.30;;;3.28;;
56653;SDS011;45096;52.302;4.634;2023-03-14T11:51:23;4.15;;;1.92;;
56653;SDS011;45096;52.302;4.634;2023-03-14T11:53:52;7.00;;;2.10;;
56653;SDS011;45096;52.302;4.634;2023-03-14T11:56:24;5.88;;;2.45;;
56653;SDS011;45096;52.302;4.634;2023-03-14T11:58:55;15.10;;;2.50;;
56653;SDS011;45096;52.302;4.634;2023-03-14T12:01:23;8.25;;;2.72;;
56653;SDS011;45096;52.302;4.634;2023-03-14T12:03:56;4.60;;;2.25;;
56653;SDS011;45096;52.302;4.634;2023-03-14T12:06:28;8.43;;;2.17;;
56653;SDS011;45096;52.302;4.634;2023-03-14T12:08:57;11.57;;;2.13;;
56653;SDS011;45096;52.302;4.634;2023-03-14T12:11:31;4.60;;;1.58;;
56653;SDS011;45096;52.302;4.634;2023-03-14T12:13:59;7.32;;;2.10;;
56653;SDS011;45096;52.302;4.634;2023-03-14T12:16:35;9.30;;;2.00;;
56653;SDS011;45096;52.302;4.634;2023-03-14T12:24:53;7.28;;;1.77;;
56653;SDS011;45096;52.302;4.634;2023-03-14T12:27:41;4.13;;;1.80;;
56653;SDS011;45096;52.302;4.634;2023-03-14T12:30:14;3.42;;;2.22;;
56653;SDS011;45096;52.302;4.634;2023-03-14T12:32:41;9.43;;;3.20;;
56653;SDS011;45096;52.302;4.634;2023-03-14T12:35:32;3.90;;;1.50;;
56653;SDS011;45096;52.302;4.634;2023-03-14T12:37:59;4.30;;;1.70;;
56653;SDS011;45096;52.302;4.634;2023-03-14T12:40:26;6.70;;;1.80;;
56653;SDS011;45096;52.302;4.634;2023-03-14T12:42:57;6.82;;;1.92;;
56653;SDS011;45096;52.302;4.634;2023-03-14T12:45:24;6.47;;;1.83;;
56653;SDS011;45096;52.302;4.634;2023-03-14T12:47:53;5.88;;;1.90;;
56653;SDS011;45096;52.302;4.634;2023-03-14T12:59:21;5.55;;;2.00;;
56653;SDS011;45096;52.302;4.634;2023-03-14T13:01:55;4.22;;;1.73;;
56653;SDS011;45096;52.302;4.634;2023-03-14T13:04:28;4.38;;;1.95;;
56653;SDS011;45096;52.302;4.634;2023-03-14T13:06:58;4.72;;;1.75;;
56653;SDS011;45096;52.302;4.634;2023-03-14T13:09:34;9.32;;;2.40;;
56653;SDS011;45096;52.302;4.634;2023-03-14T13:12:01;5.90;;;2.08;;
56653;SDS011;45096;52.302;4.634;2023-03-14T13:14:28;8.43;;;1.75;;
56653;SDS011;45096;52.302;4.634;2023-03-14T13:16:54;4.00;;;1.70;;
56653;SDS011;45096;52.302;4.634;2023-03-14T13:19:20;4.35;;;1.85;;
56653;SDS011;45096;52.302;4.634;2023-03-14T13:21:47;7.00;;;2.10;;
56653;SDS011;45096;52.302;4.634;2023-03-14T13:24:20;5.95;;;2.40;;
56653;SDS011;45096;52.302;4.634;2023-03-14T13:26:47;4.18;;;1.88;;
56653;SDS011;45096;52.302;4.634;2023-03-14T13:29:16;4.03;;;1.88;;
56653;SDS011;45096;52.302;4.634;2023-03-14T13:31:43;6.10;;;2.25;;
56653;SDS011;45096;52.302;4.634;2023-03-14T13:34:09;5.97;;;1.92;;
56653;SDS011;45096;52.302;4.634;2023-03-14T13:36:35;3.63;;;1.42;;
56653;SDS011;45096;52.302;4.634;2023-03-14T13:39:00;8.60;;;1.90;;
56653;SDS011;45096;52.302;4.634;2023-03-14T13:41:27;7.47;;;1.67;;
56653;SDS011;45096;52.302;4.634;2023-03-14T13:43:56;4.93;;;1.88;;
56653;SDS011;45096;52.302;4.634;2023-03-14T13:46:26;6.18;;;1.98;;
56653;SDS011;45096;52.302;4.634;2023-03-14T13:48:52;6.32;;;1.90;;
56653;SDS011;45096;52.302;4.634;2023-03-14T13:51:18;5.57;;;1.80;;
56653;SDS011;45096;52.302;4.634;2023-03-14T13:53:45;5.22;;;1.50;;
56653;SDS011;45096;52.302;4.634;2023-03-14T13:56:11;10.95;;;1.98;;
56653;SDS011;45096;52.302;4.634;2023-03-14T13:58:38;4.28;;;1.60;;
56653;SDS011;45096;52.302;4.634;2023-03-14T14:01:05;6.38;;;1.60;;
56653;SDS011;45096;52.302;4.634;2023-03-14T14:03:36;5.60;;;1.75;;
56653;SDS011;45096;52.302;4.634;2023-03-14T14:06:03;6.88;;;1.77;;
56653;SDS011;45096;52.302;4.634;2023-03-14T14:08:30;6.20;;;1.70;;
56653;SDS011;45096;52.302;4.634;2023-03-14T14:10:57;8.05;;;2.42;;
56653;SDS011;45096;52.302;4.634;2023-03-14T14:13:24;1.33;;;1.20;;
56653;SDS011;45096;52.302;4.634;2023-03-14T14:15:52;3.50;;;1.67;;
56653;SDS011;45096;52.302;4.634;2023-03-14T14:18:18;3.75;;;1.80;;
56653;SDS011;45096;52.302;4.634;2023-03-14T14:20:45;4.43;;;1.70;;
56653;SDS011;45096;52.302;4.634;2023-03-14T14:23:11;1.83;;;1.20;;
56653;SDS011;45096;52.302;4.634;2023-03-14T14:25:38;9.43;;;2.08;;
56653;SDS011;45096;52.302;4.634;2023-03-14T14:28:14;5.60;;;2.15;;
56653;SDS011;45096;52.302;4.634;2023-03-14T14:30:40;5.78;;;1.65;;
56653;SDS011;45096;52.302;4.634;2023-03-14T14:35:54;5.35;;;2.00;;
56653;SDS011;45096;52.302;4.634;2023-03-14T14:38:20;5.57;;;2.15;;
56653;SDS011;45096;52.302;4.634;2023-03-14T14:40:46;3.05;;;1.45;;
56653;SDS011;45096;52.302;4.634;2023-03-14T14:43:15;5.75;;;1.58;;
56653;SDS011;45096;52.302;4.634;2023-03-14T14:45:42;9.07;;;2.10;;
56653;SDS011;45096;52.302;4.634;2023-03-14T14:48:09;5.40;;;1.83;;
56653;SDS011;45096;52.302;4.634;2023-03-14T14:50:38;6.00;;;1.83;;
56653;SDS011;45096;52.302;4.634;2023-03-14T14:53:18;7.50;;;1.77;;
56653;SDS011;45096;52.302;4.634;2023-03-14T14:55:49;4.53;;;1.67;;
56653;SDS011;45096;52.302;4.634;2023-03-14T14:58:18;2.97;;;1.80;;
56653;SDS011;45096;52.302;4.634;2023-03-14T15:00:49;7.55;;;1.90;;
56653;SDS011;45096;52.302;4.634;2023-03-14T15:03:16;5.43;;;2.13;;
56653;SDS011;45096;52.302;4.634;2023-03-14T15:05:43;9.75;;;2.28;;
56653;SDS011;45096;52.302;4.634;2023-03-14T15:08:08;3.13;;;1.35;;